sensor_id;sensor_type;location;lat;lon;timestamp;pressure;altitude;pressure_sealevel;temperature;humidity
77149;BME280;66122;47.130;16.844;2024-01-30T00:05:07;101883.00;;;0.52;100.00
77149;BME280;66122;47.130;16.844;2024-01-30T00:15:09;101883.13;;;0.58;100.00
77149;BME280;66122;47.130;16.844;2024-01-30T00:25:12;101882.75;;;0.40;100.00
77149;BME280;66122;47.130;16.844;2024-01-30T00:35:15;101888.84;;;0.41;100.00
77149;BME280;66122;47.130;16.844;2024-01-30T00:45:18;101882.72;;;0.38;100.00
77149;BME280;66122;47.130;16.844;2024-01-30T00:55:20;101877.41;;;0.34;100.00
77149;BME280;66122;47.130;16.844;2024-01-30T01:05:23;101877.28;;;0.28;100.00
77149;BME280;66122;47.130;16.844;2024-01-30T01:15:26;101872.78;;;0.22;100.00
77149;BME280;66122;47.130;16.844;2024-01-30T01:25:31;101866.78;;;0.25;100.00
77149;BME280;66122;47.130;16.844;2024-01-30T01:35:34;101872.06;;;0.29;100.00
77149;BME280;66122;47.130;16.844;2024-01-30T01:45:37;101864.16;;;0.25;100.00
77149;BME280;66122;47.130;16.844;2024-01-30T01:55:39;101865.84;;;0.23;100.00
77149;BME280;66122;47.130;16.844;2024-01-30T02:05:42;101855.34;;;0.18;100.00
77149;BME280;66122;47.130;16.844;2024-01-30T02:15:49;101829.19;;;0.15;100.00
77149;BME280;66122;47.130;16.844;2024-01-30T02:25:53;101843.16;;;0.17;100.00
77149;BME280;66122;47.130;16.844;2024-01-30T02:35:55;101846.56;;;0.15;100.00
77149;BME280;66122;47.130;16.844;2024-01-30T02:45:58;101837.03;;;0.17;100.00
77149;BME280;66122;47.130;16.844;2024-01-30T02:56:03;101844.16;;;0.24;100.00
77149;BME280;66122;47.130;16.844;2024-01-30T03:06:06;101833.81;;;0.27;100.00
77149;BME280;66122;47.130;16.844;2024-01-30T03:16:09;101831.25;;;0.30;100.00
77149;BME280;66122;47.130;16.844;2024-01-30T03:26:12;101831.97;;;0.23;100.00
77149;BME280;66122;47.130;16.844;2024-01-30T03:36:15;101814.38;;;0.13;100.00
77149;BME280;66122;47.130;16.844;2024-01-30T03:46:18;101837.00;;;0.15;100.00
77149;BME280;66122;47.130;16.844;2024-01-30T03:56:21;101829.88;;;0.07;100.00
77149;BME280;66122;47.130;16.844;2024-01-30T04:06:23;101817.50;;;-0.04;100.00
77149;BME280;66122;47.130;16.844;2024-01-30T04:16:26;101827.91;;;-0.04;100.00
77149;BME280;66122;47.130;16.844;2024-01-30T04:26:29;101816.47;;;-0.10;100.00
77149;BME280;66122;47.130;16.844;2024-01-30T04:36:31;101818.16;;;-0.12;100.00
77149;BME280;66122;47.130;16.844;2024-01-30T04:46:34;101835.41;;;-0.17;100.00
77149;BME280;66122;47.130;16.844;2024-01-30T04:56:36;101825.56;;;-0.30;100.00
77149;BME280;66122;47.130;16.844;2024-01-30T05:06:39;101825.44;;;-0.35;100.00
77149;BME280;66122;47.130;16.844;2024-01-30T05:16:42;101839.31;;;-0.36;100.00
77149;BME280;66122;47.130;16.844;2024-01-30T05:26:49;101855.75;;;-0.38;100.00
77149;BME280;66122;47.130;16.844;2024-01-30T05:36:54;101845.19;;;-0.43;100.00
77149;BME280;66122;47.130;16.844;2024-01-30T05:46:57;101858.09;;;-0.49;100.00
77149;BME280;66122;47.130;16.844;2024-01-30T05:56:59;101844.78;;;-0.61;100.00
77149;BME280;66122;47.130;16.844;2024-01-30T06:07:02;101849.03;;;-0.65;100.00
77149;BME280;66122;47.130;16.844;2024-01-30T06:17:05;101855.97;;;-0.65;100.00
77149;BME280;66122;47.130;16.844;2024-01-30T06:27:08;101865.94;;;-0.48;100.00
77149;BME280;66122;47.130;16.844;2024-01-30T06:37:11;101859.19;;;-0.40;100.00
77149;BME280;66122;47.130;16.844;2024-01-30T06:47:14;101868.31;;;-0.22;100.00
77149;BME280;66122;47.130;16.844;2024-01-30T06:57:17;101867.09;;;0.01;100.00
77149;BME280;66122;47.130;16.844;2024-01-30T07:07:19;101865.41;;;0.42;100.00
77149;BME280;66122;47.130;16.844;2024-01-30T07:17:22;101883.63;;;0.41;100.00
77149;BME280;66122;47.130;16.844;2024-01-30T07:27:25;101889.81;;;0.88;100.00
77149;BME280;66122;47.130;16.844;2024-01-30T07:37:28;101882.25;;;1.48;100.00
77149;BME280;66122;47.130;16.844;2024-01-30T07:47:31;101886.22;;;2.34;100.00
77149;BME280;66122;47.130;16.844;2024-01-30T07:57:34;101876.81;;;1.87;100.00
77149;BME280;66122;47.130;16.844;2024-01-30T08:07:37;101880.16;;;3.08;97.06
77149;BME280;66122;47.130;16.844;2024-01-30T08:17:40;101887.91;;;3.91;91.17
77149;BME280;66122;47.130;16.844;2024-01-30T08:27:42;101881.78;;;3.89;88.42
77149;BME280;66122;47.130;16.844;2024-01-30T08:37:48;101880.91;;;3.88;88.37
77149;BME280;66122;47.130;16.844;2024-01-30T08:47:51;101875.88;;;4.22;86.73
77149;BME280;66122;47.130;16.844;2024-01-30T08:57:53;101856.03;;;4.82;85.25
77149;BME280;66122;47.130;16.844;2024-01-30T09:07:56;101862.22;;;5.05;82.66
77149;BME280;66122;47.130;16.844;2024-01-30T09:17:59;101861.41;;;5.18;81.94
77149;BME280;66122;47.130;16.844;2024-01-30T09:28:01;101874.53;;;5.18;81.03
77149;BME280;66122;47.130;16.844;2024-01-30T09:38:06;101865.81;;;5.78;78.63
77149;BME280;66122;47.130;16.844;2024-01-30T09:48:09;101856.91;;;6.60;75.68
77149;BME280;66122;47.130;16.844;2024-01-30T09:58:12;101838.94;;;7.29;69.86
77149;BME280;66122;47.130;16.844;2024-01-30T10:08:16;101838.94;;;8.28;66.69
77149;BME280;66122;47.130;16.844;2024-01-30T10:18:24;101833.75;;;7.14;70.36
77149;BME280;66122;47.130;16.844;2024-01-30T10:28:27;101818.31;;;8.60;65.23
77149;BME280;66122;47.130;16.844;2024-01-30T10:38:32;101805.59;;;8.90;62.99
77149;BME280;66122;47.130;16.844;2024-01-30T10:48:41;101804.66;;;8.22;64.38
77149;BME280;66122;47.130;16.844;2024-01-30T10:58:45;101788.72;;;9.54;59.58
77149;BME280;66122;47.130;16.844;2024-01-30T11:09:05;101776.28;;;9.05;62.02
77149;BME280;66122;47.130;16.844;2024-01-30T11:19:12;101752.06;;;10.68;54.41
77149;BME280;66122;47.130;16.844;2024-01-30T11:29:17;101739.56;;;11.81;49.83
77149;BME280;66122;47.130;16.844;2024-01-30T11:39:20;101723.84;;;10.65;51.05
77149;BME280;66122;47.130;16.844;2024-01-30T11:49:25;101719.00;;;11.53;50.70
77149;BME280;66122;47.130;16.844;2024-01-30T11:59:28;101711.34;;;11.75;49.76
77149;BME280;66122;47.130;16.844;2024-01-30T12:09:30;101690.50;;;12.23;48.78
77149;BME280;66122;47.130;16.844;2024-01-30T12:19:33;101677.38;;;13.02;45.51
77149;BME280;66122;47.130;16.844;2024-01-30T12:29:36;101663.06;;;12.50;46.77
77149;BME280;66122;47.130;16.844;2024-01-30T12:39:42;101666.97;;;14.65;43.13
77149;BME280;66122;47.130;16.844;2024-01-30T12:49:50;101664.16;;;12.16;49.00
77149;BME280;66122;47.130;16.844;2024-01-30T12:59:56;101654.66;;;11.44;48.76
77149;BME280;66122;47.130;16.844;2024-01-30T13:09:59;101642.38;;;12.60;47.75
77149;BME280;66122;47.130;16.844;2024-01-30T13:20:08;101640.50;;;11.76;47.78
77149;BME280;66122;47.130;16.844;2024-01-30T13:30:13;101640.69;;;10.68;49.53
77149;BME280;66122;47.130;16.844;2024-01-30T13:40:16;101648.22;;;8.05;55.07
77149;BME280;66122;47.130;16.844;2024-01-30T13:50:19;101652.72;;;7.16;59.40
77149;BME280;66122;47.130;16.844;2024-01-30T14:00:22;101658.38;;;6.70;64.13
77149;BME280;66122;47.130;16.844;2024-01-30T14:10:26;101642.72;;;6.55;65.01
77149;BME280;66122;47.130;16.844;2024-01-30T14:20:28;101645.41;;;6.41;68.02
77149;BME280;66122;47.130;16.844;2024-01-30T14:30:31;101652.53;;;6.27;69.50
77149;BME280;66122;47.130;16.844;2024-01-30T14:40:34;101637.69;;;6.18;69.23
77149;BME280;66122;47.130;16.844;2024-01-30T14:50:37;101633.41;;;5.95;71.79
77149;BME280;66122;47.130;16.844;2024-01-30T15:00:40;101634.31;;;5.83;73.26
77149;BME280;66122;47.130;16.844;2024-01-30T15:10:43;101614.25;;;5.53;74.96
77149;BME280;66122;47.130;16.844;2024-01-30T15:20:46;101653.72;;;5.42;76.27
77149;BME280;66122;47.130;16.844;2024-01-30T15:30:48;101659.00;;;5.20;77.56
77149;BME280;66122;47.130;16.844;2024-01-30T15:40:51;101675.69;;;4.94;78.70
77149;BME280;66122;47.130;16.844;2024-01-30T15:50:54;101666.91;;;4.59;79.92
77149;BME280;66122;47.130;16.844;2024-01-30T16:00:57;101668.63;;;4.42;81.26
77149;BME280;66122;47.130;16.844;2024-01-30T16:11:00;101662.41;;;4.02;83.13
77149;BME280;66122;47.130;16.844;2024-01-30T16:21:03;101670.94;;;3.61;84.05
77149;BME280;66122;47.130;16.844;2024-01-30T16:31:06;101658.56;;;3.33;85.54
77149;BME280;66122;47.130;16.844;2024-01-30T16:41:09;101668.91;;;3.08;87.38
77149;BME280;66122;47.130;16.844;2024-01-30T16:51:11;101631.88;;;2.63;87.65
77149;BME280;66122;47.130;16.844;2024-01-30T17:01:14;101681.69;;;2.72;88.50
77149;BME280;66122;47.130;16.844;2024-01-30T17:11:17;101689.50;;;2.66;88.83
77149;BME280;66122;47.130;16.844;2024-01-30T17:21:21;101686.72;;;2.51;91.09
77149;BME280;66122;47.130;16.844;2024-01-30T17:31:24;101686.53;;;2.34;90.96
77149;BME280;66122;47.130;16.844;2024-01-30T17:41:27;101681.97;;;2.16;92.01
77149;BME280;66122;47.130;16.844;2024-01-30T17:51:30;101673.97;;;2.03;93.44
77149;BME280;66122;47.130;16.844;2024-01-30T18:01:33;101672.94;;;1.90;95.51
77149;BME280;66122;47.130;16.844;2024-01-30T18:11:36;101666.72;;;1.79;95.62
77149;BME280;66122;47.130;16.844;2024-01-30T18:21:39;101675.31;;;1.69;96.32
77149;BME280;66122;47.130;16.844;2024-01-30T18:31:42;101669.16;;;1.64;95.28
77149;BME280;66122;47.130;16.844;2024-01-30T18:41:47;101675.94;;;1.52;96.96
77149;BME280;66122;47.130;16.844;2024-01-30T18:51:49;101680.19;;;1.43;98.28
77149;BME280;66122;47.130;16.844;2024-01-30T19:01:55;101682.56;;;1.28;98.15
77149;BME280;66122;47.130;16.844;2024-01-30T19:11:58;101685.91;;;1.19;98.70
77149;BME280;66122;47.130;16.844;2024-01-30T19:22:01;101690.16;;;1.12;98.86
77149;BME280;66122;47.130;16.844;2024-01-30T19:32:04;101680.50;;;1.07;99.57
77149;BME280;66122;47.130;16.844;2024-01-30T19:42:06;101674.19;;;0.93;100.00
77149;BME280;66122;47.130;16.844;2024-01-30T19:52:09;101685.63;;;1.02;100.00
77149;BME280;66122;47.130;16.844;2024-01-30T20:02:12;101686.50;;;1.01;100.00
77149;BME280;66122;47.130;16.844;2024-01-30T20:12:18;101662.78;;;0.88;100.00
77149;BME280;66122;47.130;16.844;2024-01-30T20:22:21;101657.63;;;0.91;100.00
77149;BME280;66122;47.130;16.844;2024-01-30T20:32:23;101647.97;;;0.85;100.00
77149;BME280;66122;47.130;16.844;2024-01-30T20:42:26;101617.31;;;0.70;100.00
77149;BME280;66122;47.130;16.844;2024-01-30T20:52:29;101640.09;;;0.82;100.00
77149;BME280;66122;47.130;16.844;2024-01-30T21:02:32;101636.59;;;0.82;100.00
77149;BME280;66122;47.130;16.844;2024-01-30T21:12:35;101634.03;;;0.83;100.00
77149;BME280;66122;47.130;16.844;2024-01-30T21:22:37;101633.16;;;0.83;100.00
77149;BME280;66122;47.130;16.844;2024-01-30T21:32:40;101632.22;;;0.79;100.00
77149;BME280;66122;47.130;16.844;2024-01-30T21:42:43;101619.19;;;0.79;100.00
77149;BME280;66122;47.130;16.844;2024-01-30T21:52:47;101598.19;;;0.73;100.00
77149;BME280;66122;47.130;16.844;2024-01-30T22:02:51;101603.38;;;0.70;100.00
77149;BME280;66122;47.130;16.844;2024-01-30T22:12:53;101595.38;;;0.59;100.00
77149;BME280;66122;47.130;16.844;2024-01-30T22:22:56;101577.19;;;0.65;100.00
77149;BME280;66122;47.130;16.844;2024-01-30T22:32:59;101580.13;;;0.87;100.00
77149;BME280;66122;47.130;16.844;2024-01-30T22:43:04;101579.34;;;0.91;100.00
77149;BME280;66122;47.130;16.844;2024-01-30T22:53:10;101579.38;;;0.94;100.00
77149;BME280;66122;47.130;16.844;2024-01-30T23:03:13;101583.72;;;0.92;100.00
77149;BME280;66122;47.130;16.844;2024-01-30T23:13:16;101572.31;;;0.85;100.00
77149;BME280;66122;47.130;16.844;2024-01-30T23:23:18;101581.91;;;0.89;100.00
77149;BME280;66122;47.130;16.844;2024-01-30T23:33:21;101586.19;;;0.83;100.00
77149;BME280;66122;47.130;16.844;2024-01-30T23:43:24;101590.44;;;0.76;100.00
77149;BME280;66122;47.130;16.844;2024-01-30T23:53:31;101596.34;;;0.64;100.00
